createdAt,value
2017-10-20T21:19:08.464Z,54.67
2017-10-20T21:20:45.496Z,54.65
2017-10-20T21:22:22.535Z,54.67
2017-10-20T21:23:59.337Z,54.62
2017-10-20T21:25:36.059Z,54.61
2017-10-20T21:27:13.276Z,54.59
2017-10-20T21:28:50.451Z,54.59
2017-10-20T21:30:29.617Z,54.58
2017-10-20T21:32:07.409Z,54.56
2017-10-20T21:33:45.631Z,54.56
2017-10-20T21:35:23.071Z,54.54
2017-10-20T21:37:07.759Z,54.53
2017-10-20T21:38:45.175Z,54.51
2017-10-20T21:40:22.050Z,54.50
2017-10-20T21:41:59.018Z,54.48
2017-10-20T21:43:36.708Z,54.47
2017-10-20T21:45:18.399Z,54.46
2017-10-20T21:46:55.349Z,54.46
2017-10-20T21:48:32.271Z,54.45
2017-10-20T21:50:09.102Z,54.44
2017-10-20T21:51:46.995Z,54.42
2017-10-20T21:53:24.497Z,54.41
2017-10-20T21:55:02.181Z,54.40
2017-10-20T21:56:39.006Z,54.38
2017-10-20T21:58:15.823Z,54.37
2017-10-20T21:59:53.699Z,54.36
2017-10-20T22:01:31.447Z,54.36
2017-10-20T22:03:08.987Z,54.34
2017-10-20T22:04:45.997Z,54.33
2017-10-20T22:06:22.679Z,54.32
2017-10-20T22:08:00.748Z,54.32
2017-10-20T22:09:38.330Z,54.30
2017-10-20T22:11:16.381Z,54.29
2017-10-20T22:12:53.492Z,54.29
2017-10-20T22:14:30.233Z,54.27
2017-10-20T22:16:07.794Z,54.27
2017-10-20T22:17:44.684Z,54.27
2017-10-20T22:19:22.186Z,54.26
2017-10-20T22:20:59.797Z,54.25
2017-10-20T22:22:36.950Z,54.23
2017-10-20T22:24:20.050Z,54.23
2017-10-20T22:25:59.302Z,54.22
2017-10-20T22:27:40.074Z,54.21
2017-10-20T22:29:18.194Z,54.19
2017-10-20T22:30:58.077Z,54.18
2017-10-20T22:32:39.618Z,54.19
2017-10-20T22:34:18.344Z,54.18
2017-10-20T22:35:56.378Z,54.18
2017-10-20T22:37:33.473Z,54.18
2017-10-20T22:39:13.189Z,54.18
2017-10-20T22:40:50.254Z,54.19
2017-10-20T22:42:27.609Z,54.19
2017-10-20T22:44:04.520Z,54.19
2017-10-20T22:45:41.305Z,54.18
2017-10-20T22:47:22.290Z,54.18
2017-10-20T22:49:00.861Z,54.18
2017-10-20T22:50:37.644Z,54.18
2017-10-20T22:52:14.833Z,54.17
2017-10-20T22:53:54.624Z,54.18
2017-10-20T22:55:32.642Z,54.17
2017-10-20T22:57:09.564Z,54.17
2017-10-20T22:58:46.442Z,54.17
2017-10-20T23:00:24.943Z,54.17
2017-10-20T23:02:03.187Z,54.17
2017-10-20T23:03:39.933Z,54.17
2017-10-20T23:05:16.583Z,54.17
2017-10-20T23:06:53.595Z,54.17
2017-10-20T23:08:31.636Z,54.17
2017-10-20T23:10:09.866Z,54.16
2017-10-20T23:11:47.014Z,54.16
2017-10-20T23:13:23.595Z,54.17
2017-10-20T23:15:01.377Z,54.17
2017-10-20T23:16:39.645Z,54.18
2017-10-20T23:18:16.452Z,54.19
2017-10-20T23:19:54.259Z,54.20
2017-10-20T23:21:31.853Z,54.21
2017-10-20T23:23:08.741Z,54.22
2017-10-20T23:24:45.512Z,54.22
2017-10-20T23:26:22.140Z,54.23
2017-10-20T23:28:06.916Z,54.22
2017-10-20T23:29:44.453Z,54.22
2017-10-20T23:31:21.334Z,54.22
2017-10-20T23:32:58.582Z,54.21
2017-10-20T23:34:35.561Z,54.21
2017-10-20T23:36:12.297Z,54.21
2017-10-20T23:37:49.504Z,54.21
2017-10-20T23:39:26.802Z,54.21
2017-10-20T23:41:03.734Z,54.21
2017-10-20T23:42:40.357Z,54.20
2017-10-20T23:44:17.448Z,54.21
2017-10-20T23:45:54.965Z,54.20
2017-10-20T23:47:32.920Z,54.20
2017-10-20T23:49:09.650Z,54.21
2017-10-20T23:50:46.930Z,54.20
2017-10-20T23:52:24.366Z,54.20
2017-10-20T23:54:03.664Z,54.21
2017-10-20T23:55:40.341Z,54.21
2017-10-20T23:57:17.757Z,54.22
2017-10-20T23:58:54.492Z,54.23
